sensor_id;sensor_type;location;lat;lon;timestamp;temperature;humidity
15239;DHT22;7722;53.274;9.500;2022-10-16T00:01:06;12.70;99.90
15239;DHT22;7722;53.274;9.500;2022-10-16T00:03:35;12.70;99.90
15239;DHT22;7722;53.274;9.500;2022-10-16T00:06:03;12.60;99.90
15239;DHT22;7722;53.274;9.500;2022-10-16T00:08:31;12.60;99.90
15239;DHT22;7722;53.274;9.500;2022-10-16T00:11:02;12.50;99.90
15239;DHT22;7722;53.274;9.500;2022-10-16T00:13:30;12.50;99.90
15239;DHT22;7722;53.274;9.500;2022-10-16T00:15:58;12.50;99.90
15239;DHT22;7722;53.274;9.500;2022-10-16T00:18:26;12.50;99.90
15239;DHT22;7722;53.274;9.500;2022-10-16T00:21:00;12.60;99.90
15239;DHT22;7722;53.274;9.500;2022-10-16T00:23:28;12.50;99.90
15239;DHT22;7722;53.274;9.500;2022-10-16T00:26:00;12.50;99.90
15239;DHT22;7722;53.274;9.500;2022-10-16T00:28:28;12.40;99.90
15239;DHT22;7722;53.274;9.500;2022-10-16T00:30:56;12.40;99.90
15239;DHT22;7722;53.274;9.500;2022-10-16T00:33:23;12.40;99.90
15239;DHT22;7722;53.274;9.500;2022-10-16T00:35:50;12.40;99.90
15239;DHT22;7722;53.274;9.500;2022-10-16T00:38:19;12.40;99.90
15239;DHT22;7722;53.274;9.500;2022-10-16T00:40:46;12.30;99.90
15239;DHT22;7722;53.274;9.500;2022-10-16T00:43:31;12.30;99.90
15239;DHT22;7722;53.274;9.500;2022-10-16T00:45:59;12.30;99.90
15239;DHT22;7722;53.274;9.500;2022-10-16T00:48:27;12.30;99.90
15239;DHT22;7722;53.274;9.500;2022-10-16T00:50:54;12.30;99.90
15239;DHT22;7722;53.274;9.500;2022-10-16T00:53:25;12.30;99.90
15239;DHT22;7722;53.274;9.500;2022-10-16T00:55:52;12.30;99.90
15239;DHT22;7722;53.274;9.500;2022-10-16T00:58:20;12.40;99.90
15239;DHT22;7722;53.274;9.500;2022-10-16T01:00:47;12.40;99.90
15239;DHT22;7722;53.274;9.500;2022-10-16T01:03:27;12.30;99.90
15239;DHT22;7722;53.274;9.500;2022-10-16T01:06:11;12.30;99.90
15239;DHT22;7722;53.274;9.500;2022-10-16T01:08:58;12.30;99.90
15239;DHT22;7722;53.274;9.500;2022-10-16T01:11:33;12.30;99.90
15239;DHT22;7722;53.274;9.500;2022-10-16T01:14:08;12.20;99.90
15239;DHT22;7722;53.274;9.500;2022-10-16T01:16:43;12.20;99.90
15239;DHT22;7722;53.274;9.500;2022-10-16T01:19:15;12.20;99.90
15239;DHT22;7722;53.274;9.500;2022-10-16T01:21:46;12.20;99.90
15239;DHT22;7722;53.274;9.500;2022-10-16T01:24:26;12.20;99.90
15239;DHT22;7722;53.274;9.500;2022-10-16T01:27:07;12.20;99.90
15239;DHT22;7722;53.274;9.500;2022-10-16T01:29:39;12.20;99.90
15239;DHT22;7722;53.274;9.500;2022-10-16T01:32:11;12.20;99.90
15239;DHT22;7722;53.274;9.500;2022-10-16T01:34:45;12.20;99.90
15239;DHT22;7722;53.274;9.500;2022-10-16T01:37:17;12.30;99.90
15239;DHT22;7722;53.274;9.500;2022-10-16T01:39:47;12.20;99.90
15239;DHT22;7722;53.274;9.500;2022-10-16T01:42:20;12.20;99.90
15239;DHT22;7722;53.274;9.500;2022-10-16T01:44:51;12.20;99.90
15239;DHT22;7722;53.274;9.500;2022-10-16T01:47:22;12.20;99.90
15239;DHT22;7722;53.274;9.500;2022-10-16T01:49:51;12.20;99.90
15239;DHT22;7722;53.274;9.500;2022-10-16T01:52:22;12.10;99.90
15239;DHT22;7722;53.274;9.500;2022-10-16T01:54:52;12.10;99.90
15239;DHT22;7722;53.274;9.500;2022-10-16T01:57:23;12.10;99.90
15239;DHT22;7722;53.274;9.500;2022-10-16T01:59:53;12.10;99.90
15239;DHT22;7722;53.274;9.500;2022-10-16T02:02:22;12.00;99.90
15239;DHT22;7722;53.274;9.500;2022-10-16T02:04:57;12.00;99.90
15239;DHT22;7722;53.274;9.500;2022-10-16T02:07:25;11.90;99.90
15239;DHT22;7722;53.274;9.500;2022-10-16T02:09:52;11.90;99.90
15239;DHT22;7722;53.274;9.500;2022-10-16T02:12:25;11.90;99.90
15239;DHT22;7722;53.274;9.500;2022-10-16T02:14:53;11.90;99.90
15239;DHT22;7722;53.274;9.500;2022-10-16T02:17:21;11.90;99.90
15239;DHT22;7722;53.274;9.500;2022-10-16T02:19:50;11.80;99.90
15239;DHT22;7722;53.274;9.500;2022-10-16T02:22:23;11.70;99.90
15239;DHT22;7722;53.274;9.500;2022-10-16T02:24:54;11.70;99.90
15239;DHT22;7722;53.274;9.500;2022-10-16T02:27:27;11.60;99.90
15239;DHT22;7722;53.274;9.500;2022-10-16T02:30:01;11.60;99.90
15239;DHT22;7722;53.274;9.500;2022-10-16T02:32:33;11.60;99.90
15239;DHT22;7722;53.274;9.500;2022-10-16T02:35:02;11.50;99.90
15239;DHT22;7722;53.274;9.500;2022-10-16T02:37:29;11.50;99.90
15239;DHT22;7722;53.274;9.500;2022-10-16T02:39:58;11.50;99.90
15239;DHT22;7722;53.274;9.500;2022-10-16T02:42:31;11.50;99.90
15239;DHT22;7722;53.274;9.500;2022-10-16T02:44:59;11.40;99.90
15239;DHT22;7722;53.274;9.500;2022-10-16T02:47:26;11.40;99.90
15239;DHT22;7722;53.274;9.500;2022-10-16T02:49:53;11.40;99.90
15239;DHT22;7722;53.274;9.500;2022-10-16T02:52:20;11.40;99.90
15239;DHT22;7722;53.274;9.500;2022-10-16T02:54:47;11.30;99.90
15239;DHT22;7722;53.274;9.500;2022-10-16T02:57:14;11.30;99.90
15239;DHT22;7722;53.274;9.500;2022-10-16T02:59:42;11.30;99.90
15239;DHT22;7722;53.274;9.500;2022-10-16T03:02:10;11.20;99.90
15239;DHT22;7722;53.274;9.500;2022-10-16T03:04:37;11.20;99.90
15239;DHT22;7722;53.274;9.500;2022-10-16T03:07:04;11.20;99.90
15239;DHT22;7722;53.274;9.500;2022-10-16T03:09:31;11.20;99.90
15239;DHT22;7722;53.274;9.500;2022-10-16T03:11:58;11.20;99.90
15239;DHT22;7722;53.274;9.500;2022-10-16T03:14:25;11.20;99.90
15239;DHT22;7722;53.274;9.500;2022-10-16T03:16:54;11.20;99.90
15239;DHT22;7722;53.274;9.500;2022-10-16T03:19:21;11.20;99.90
15239;DHT22;7722;53.274;9.500;2022-10-16T03:21:48;11.20;99.90
15239;DHT22;7722;53.274;9.500;2022-10-16T03:24:15;11.20;99.90
15239;DHT22;7722;53.274;9.500;2022-10-16T03:26:43;11.20;99.90
15239;DHT22;7722;53.274;9.500;2022-10-16T03:29:10;11.20;99.90
15239;DHT22;7722;53.274;9.500;2022-10-16T03:31:37;11.20;99.90
15239;DHT22;7722;53.274;9.500;2022-10-16T03:34:05;11.20;99.90
15239;DHT22;7722;53.274;9.500;2022-10-16T03:36:33;11.20;99.90
15239;DHT22;7722;53.274;9.500;2022-10-16T03:39:00;11.10;99.90
15239;DHT22;7722;53.274;9.500;2022-10-16T03:41:27;11.10;99.90
15239;DHT22;7722;53.274;9.500;2022-10-16T03:43:54;11.20;99.90
15239;DHT22;7722;53.274;9.500;2022-10-16T03:46:21;11.10;99.90
15239;DHT22;7722;53.274;9.500;2022-10-16T03:48:48;11.20;99.90
15239;DHT22;7722;53.274;9.500;2022-10-16T03:51:17;11.20;99.90
15239;DHT22;7722;53.274;9.500;2022-10-16T03:53:44;11.20;99.90
15239;DHT22;7722;53.274;9.500;2022-10-16T03:56:11;11.10;99.90
15239;DHT22;7722;53.274;9.500;2022-10-16T03:58:38;11.10;99.90
15239;DHT22;7722;53.274;9.500;2022-10-16T04:01:05;11.10;99.90
15239;DHT22;7722;53.274;9.500;2022-10-16T04:03:32;11.10;99.90
15239;DHT22;7722;53.274;9.500;2022-10-16T04:06:00;11.10;99.90
15239;DHT22;7722;53.274;9.500;2022-10-16T04:08:28;11.10;99.90
15239;DHT22;7722;53.274;9.500;2022-10-16T04:10:55;11.20;99.90
15239;DHT22;7722;53.274;9.500;2022-10-16T04:13:22;11.20;99.90
15239;DHT22;7722;53.274;9.500;2022-10-16T04:15:49;11.20;99.90
15239;DHT22;7722;53.274;9.500;2022-10-16T04:18:17;11.10;99.90
15239;DHT22;7722;53.274;9.500;2022-10-16T04:20:44;11.10;99.90
15239;DHT22;7722;53.274;9.500;2022-10-16T04:23:11;11.10;99.90
15239;DHT22;7722;53.274;9.500;2022-10-16T04:25:39;11.10;99.90
15239;DHT22;7722;53.274;9.500;2022-10-16T04:28:06;11.10;99.90
15239;DHT22;7722;53.274;9.500;2022-10-16T04:30:34;11.10;99.90
15239;DHT22;7722;53.274;9.500;2022-10-16T04:33:01;11.10;99.90
15239;DHT22;7722;53.274;9.500;2022-10-16T04:35:28;11.10;99.90
15239;DHT22;7722;53.274;9.500;2022-10-16T04:37:57;11.10;99.90
15239;DHT22;7722;53.274;9.500;2022-10-16T04:40:24;11.10;99.90
15239;DHT22;7722;53.274;9.500;2022-10-16T04:42:53;11.10;99.90
15239;DHT22;7722;53.274;9.500;2022-10-16T04:45:20;11.10;99.90
15239;DHT22;7722;53.274;9.500;2022-10-16T04:47:47;11.10;99.90
15239;DHT22;7722;53.274;9.500;2022-10-16T04:50:14;11.10;99.90
15239;DHT22;7722;53.274;9.500;2022-10-16T04:52:41;11.00;99.90
15239;DHT22;7722;53.274;9.500;2022-10-16T04:55:08;11.00;99.90
15239;DHT22;7722;53.274;9.500;2022-10-16T04:57:35;11.00;99.90
15239;DHT22;7722;53.274;9.500;2022-10-16T05:00:05;11.00;99.90
15239;DHT22;7722;53.274;9.500;2022-10-16T05:02:33;11.00;99.90
15239;DHT22;7722;53.274;9.500;2022-10-16T05:05:00;11.00;99.90
15239;DHT22;7722;53.274;9.500;2022-10-16T05:07:27;11.00;99.90
15239;DHT22;7722;53.274;9.500;2022-10-16T05:09:55;11.00;99.90
15239;DHT22;7722;53.274;9.500;2022-10-16T05:12:22;11.00;99.90
15239;DHT22;7722;53.274;9.500;2022-10-16T05:14:49;11.00;99.90
15239;DHT22;7722;53.274;9.500;2022-10-16T05:17:18;11.00;99.90
15239;DHT22;7722;53.274;9.500;2022-10-16T05:19:45;10.90;99.90
15239;DHT22;7722;53.274;9.500;2022-10-16T05:22:12;10.90;99.90
15239;DHT22;7722;53.274;9.500;2022-10-16T05:24:39;10.90;99.90
15239;DHT22;7722;53.274;9.500;2022-10-16T05:27:06;11.00;99.90
15239;DHT22;7722;53.274;9.500;2022-10-16T05:29:33;10.90;99.90
15239;DHT22;7722;53.274;9.500;2022-10-16T05:32:00;10.80;99.90
15239;DHT22;7722;53.274;9.500;2022-10-16T05:34:29;10.80;99.90
15239;DHT22;7722;53.274;9.500;2022-10-16T05:36:57;10.80;99.90
15239;DHT22;7722;53.274;9.500;2022-10-16T05:39:24;10.80;99.90
15239;DHT22;7722;53.274;9.500;2022-10-16T05:41:51;10.90;99.90
15239;DHT22;7722;53.274;9.500;2022-10-16T05:44:18;10.90;99.90
15239;DHT22;7722;53.274;9.500;2022-10-16T05:46:46;10.90;99.90
15239;DHT22;7722;53.274;9.500;2022-10-16T05:49:13;10.90;99.90
15239;DHT22;7722;53.274;9.500;2022-10-16T05:51:42;10.90;99.90
15239;DHT22;7722;53.274;9.500;2022-10-16T05:54:09;10.90;99.90
15239;DHT22;7722;53.274;9.500;2022-10-16T05:56:36;10.90;99.90
15239;DHT22;7722;53.274;9.500;2022-10-16T05:59:04;10.90;99.90
15239;DHT22;7722;53.274;9.500;2022-10-16T06:01:31;11.00;99.90
15239;DHT22;7722;53.274;9.500;2022-10-16T06:03:58;10.90;99.90
15239;DHT22;7722;53.274;9.500;2022-10-16T06:06:26;11.00;99.90
15239;DHT22;7722;53.274;9.500;2022-10-16T06:08:56;11.00;99.90
15239;DHT22;7722;53.274;9.500;2022-10-16T06:11:27;11.00;99.90
15239;DHT22;7722;53.274;9.500;2022-10-16T06:13:56;11.00;99.90
15239;DHT22;7722;53.274;9.500;2022-10-16T06:16:24;11.00;99.90
15239;DHT22;7722;53.274;9.500;2022-10-16T06:18:52;11.00;99.90
15239;DHT22;7722;53.274;9.500;2022-10-16T06:21:21;11.10;99.90
15239;DHT22;7722;53.274;9.500;2022-10-16T06:23:50;11.20;99.90
15239;DHT22;7722;53.274;9.500;2022-10-16T06:26:20;11.20;99.90
15239;DHT22;7722;53.274;9.500;2022-10-16T06:28:48;11.30;99.90
15239;DHT22;7722;53.274;9.500;2022-10-16T06:31:16;11.40;99.90
15239;DHT22;7722;53.274;9.500;2022-10-16T06:33:43;11.40;99.90
15239;DHT22;7722;53.274;9.500;2022-10-16T06:36:14;11.40;99.90
15239;DHT22;7722;53.274;9.500;2022-10-16T06:38:42;11.50;99.90
15239;DHT22;7722;53.274;9.500;2022-10-16T06:41:11;11.50;99.90
15239;DHT22;7722;53.274;9.500;2022-10-16T06:43:40;11.60;99.90
15239;DHT22;7722;53.274;9.500;2022-10-16T06:46:10;11.60;99.90
15239;DHT22;7722;53.274;9.500;2022-10-16T06:48:38;11.60;99.90
15239;DHT22;7722;53.274;9.500;2022-10-16T06:51:06;11.70;99.90
15239;DHT22;7722;53.274;9.500;2022-10-16T06:53:36;11.80;99.90
15239;DHT22;7722;53.274;9.500;2022-10-16T06:56:08;11.80;99.90
15239;DHT22;7722;53.274;9.500;2022-10-16T06:58:35;11.90;99.90
15239;DHT22;7722;53.274;9.500;2022-10-16T07:01:04;11.90;99.90
15239;DHT22;7722;53.274;9.500;2022-10-16T07:03:31;12.00;99.90
15239;DHT22;7722;53.274;9.500;2022-10-16T07:06:51;12.00;99.90
15239;DHT22;7722;53.274;9.500;2022-10-16T07:16:24;12.20;99.90
15239;DHT22;7722;53.274;9.500;2022-10-16T07:18:51;12.30;99.90
15239;DHT22;7722;53.274;9.500;2022-10-16T07:21:24;12.40;99.90
15239;DHT22;7722;53.274;9.500;2022-10-16T07:23:51;12.40;99.90
15239;DHT22;7722;53.274;9.500;2022-10-16T07:26:18;12.50;99.90
15239;DHT22;7722;53.274;9.500;2022-10-16T07:28:45;12.60;99.90
15239;DHT22;7722;53.274;9.500;2022-10-16T07:31:13;12.60;99.90
15239;DHT22;7722;53.274;9.500;2022-10-16T07:33:44;12.70;99.90
15239;DHT22;7722;53.274;9.500;2022-10-16T07:36:14;12.80;99.90
15239;DHT22;7722;53.274;9.500;2022-10-16T07:38:42;12.90;99.90
15239;DHT22;7722;53.274;9.500;2022-10-16T07:41:10;13.00;99.90
15239;DHT22;7722;53.274;9.500;2022-10-16T07:43:38;13.00;99.90
15239;DHT22;7722;53.274;9.500;2022-10-16T07:46:05;13.10;99.90
15239;DHT22;7722;53.274;9.500;2022-10-16T07:48:33;13.30;99.90
15239;DHT22;7722;53.274;9.500;2022-10-16T07:51:04;13.40;99.90
15239;DHT22;7722;53.274;9.500;2022-10-16T07:53:31;13.60;99.90
15239;DHT22;7722;53.274;9.500;2022-10-16T07:55:59;13.70;99.90
15239;DHT22;7722;53.274;9.500;2022-10-16T07:58:26;13.80;99.90
15239;DHT22;7722;53.274;9.500;2022-10-16T08:00:53;13.90;99.90
15239;DHT22;7722;53.274;9.500;2022-10-16T08:03:20;14.00;99.90
15239;DHT22;7722;53.274;9.500;2022-10-16T08:05:47;14.10;99.90
15239;DHT22;7722;53.274;9.500;2022-10-16T08:08:17;14.20;99.90
15239;DHT22;7722;53.274;9.500;2022-10-16T08:10:44;14.20;99.90
15239;DHT22;7722;53.274;9.500;2022-10-16T08:13:11;14.30;99.90
15239;DHT22;7722;53.274;9.500;2022-10-16T08:15:40;14.40;99.90
15239;DHT22;7722;53.274;9.500;2022-10-16T08:18:08;14.50;99.90
15239;DHT22;7722;53.274;9.500;2022-10-16T08:20:36;14.60;99.90
15239;DHT22;7722;53.274;9.500;2022-10-16T08:23:03;14.60;99.90
15239;DHT22;7722;53.274;9.500;2022-10-16T08:25:31;14.60;99.90
15239;DHT22;7722;53.274;9.500;2022-10-16T08:28:02;14.70;99.90
15239;DHT22;7722;53.274;9.500;2022-10-16T08:30:30;14.70;99.90
15239;DHT22;7722;53.274;9.500;2022-10-16T08:32:57;14.80;99.90
15239;DHT22;7722;53.274;9.500;2022-10-16T08:35:24;14.90;99.90
15239;DHT22;7722;53.274;9.500;2022-10-16T08:37:51;15.00;99.90
15239;DHT22;7722;53.274;9.500;2022-10-16T08:40:20;15.20;99.90
15239;DHT22;7722;53.274;9.500;2022-10-16T08:43:12;15.30;99.90
15239;DHT22;7722;53.274;9.500;2022-10-16T08:45:57;15.50;99.90
15239;DHT22;7722;53.274;9.500;2022-10-16T08:48:38;15.50;99.90
15239;DHT22;7722;53.274;9.500;2022-10-16T08:51:08;15.40;99.90
15239;DHT22;7722;53.274;9.500;2022-10-16T08:53:41;15.50;99.90
15239;DHT22;7722;53.274;9.500;2022-10-16T08:56:09;15.40;99.90
15239;DHT22;7722;53.274;9.500;2022-10-16T08:58:38;15.40;99.90
15239;DHT22;7722;53.274;9.500;2022-10-16T09:01:12;15.50;99.90
15239;DHT22;7722;53.274;9.500;2022-10-16T09:04:02;15.40;99.90
15239;DHT22;7722;53.274;9.500;2022-10-16T09:06:45;15.50;99.90
15239;DHT22;7722;53.274;9.500;2022-10-16T09:09:28;15.50;99.90
15239;DHT22;7722;53.274;9.500;2022-10-16T09:12:02;15.70;99.90
15239;DHT22;7722;53.274;9.500;2022-10-16T09:14:50;15.80;99.90
15239;DHT22;7722;53.274;9.500;2022-10-16T09:26:21;16.20;99.90
15239;DHT22;7722;53.274;9.500;2022-10-16T09:28:48;16.10;99.90
15239;DHT22;7722;53.274;9.500;2022-10-16T09:31:21;16.40;99.90
15239;DHT22;7722;53.274;9.500;2022-10-16T09:33:52;16.70;99.90
15239;DHT22;7722;53.274;9.500;2022-10-16T09:36:21;16.90;99.90
15239;DHT22;7722;53.274;9.500;2022-10-16T09:38:49;16.70;99.90
15239;DHT22;7722;53.274;9.500;2022-10-16T09:41:21;16.70;99.90
15239;DHT22;7722;53.274;9.500;2022-10-16T09:43:53;16.90;99.90
15239;DHT22;7722;53.274;9.500;2022-10-16T09:46:26;17.20;99.90
15239;DHT22;7722;53.274;9.500;2022-10-16T09:49:03;17.20;99.90
15239;DHT22;7722;53.274;9.500;2022-10-16T09:51:32;17.20;99.90
15239;DHT22;7722;53.274;9.500;2022-10-16T09:54:02;17.20;99.90
15239;DHT22;7722;53.274;9.500;2022-10-16T09:56:39;17.50;99.90
15239;DHT22;7722;53.274;9.500;2022-10-16T09:59:13;17.60;99.90
15239;DHT22;7722;53.274;9.500;2022-10-16T10:01:44;17.70;99.90
15239;DHT22;7722;53.274;9.500;2022-10-16T10:04:12;17.90;99.90
15239;DHT22;7722;53.274;9.500;2022-10-16T10:06:43;18.20;99.90
15239;DHT22;7722;53.274;9.500;2022-10-16T10:09:17;17.90;99.90
15239;DHT22;7722;53.274;9.500;2022-10-16T10:11:49;17.70;99.90
15239;DHT22;7722;53.274;9.500;2022-10-16T10:14:32;18.00;99.90
15239;DHT22;7722;53.274;9.500;2022-10-16T10:17:10;18.20;99.90
15239;DHT22;7722;53.274;9.500;2022-10-16T10:19:40;18.20;99.90
15239;DHT22;7722;53.274;9.500;2022-10-16T10:22:17;18.20;99.90
15239;DHT22;7722;53.274;9.500;2022-10-16T10:24:44;18.20;99.90
15239;DHT22;7722;53.274;9.500;2022-10-16T10:27:21;18.20;99.90
15239;DHT22;7722;53.274;9.500;2022-10-16T10:29:57;18.10;99.90
15239;DHT22;7722;53.274;9.500;2022-10-16T10:32:30;18.20;99.90
15239;DHT22;7722;53.274;9.500;2022-10-16T10:35:12;17.90;99.90
15239;DHT22;7722;53.274;9.500;2022-10-16T10:37:57;18.00;99.90
15239;DHT22;7722;53.274;9.500;2022-10-16T10:40:37;18.30;99.90
15239;DHT22;7722;53.274;9.500;2022-10-16T10:43:13;18.60;99.90
15239;DHT22;7722;53.274;9.500;2022-10-16T10:45:46;18.80;99.90
15239;DHT22;7722;53.274;9.500;2022-10-16T10:48:29;19.00;99.90
15239;DHT22;7722;53.274;9.500;2022-10-16T10:51:03;18.90;99.90
15239;DHT22;7722;53.274;9.500;2022-10-16T10:53:40;19.20;99.90
15239;DHT22;7722;53.274;9.500;2022-10-16T10:56:20;19.10;99.90
15239;DHT22;7722;53.274;9.500;2022-10-16T10:59:16;19.10;99.90
15239;DHT22;7722;53.274;9.500;2022-10-16T11:01:50;18.90;99.90
15239;DHT22;7722;53.274;9.500;2022-10-16T11:04:38;18.50;99.90
15239;DHT22;7722;53.274;9.500;2022-10-16T11:07:15;18.70;99.90
15239;DHT22;7722;53.274;9.500;2022-10-16T11:09:47;18.90;99.90
15239;DHT22;7722;53.274;9.500;2022-10-16T11:12:19;18.70;99.90
15239;DHT22;7722;53.274;9.500;2022-10-16T11:14:53;18.70;99.90
15239;DHT22;7722;53.274;9.500;2022-10-16T11:17:25;18.60;99.90
15239;DHT22;7722;53.274;9.500;2022-10-16T11:19:59;17.90;99.90
15239;DHT22;7722;53.274;9.500;2022-10-16T11:22:32;18.00;99.90
15239;DHT22;7722;53.274;9.500;2022-10-16T11:25:04;18.20;99.90
15239;DHT22;7722;53.274;9.500;2022-10-16T11:27:36;18.30;99.90
15239;DHT22;7722;53.274;9.500;2022-10-16T11:30:11;18.60;99.90
15239;DHT22;7722;53.274;9.500;2022-10-16T11:33:02;18.70;99.90
15239;DHT22;7722;53.274;9.500;2022-10-16T11:35:39;19.00;99.90
15239;DHT22;7722;53.274;9.500;2022-10-16T11:38:14;18.50;99.90
15239;DHT22;7722;53.274;9.500;2022-10-16T11:40:43;18.10;99.90
15239;DHT22;7722;53.274;9.500;2022-10-16T11:43:17;18.20;99.90
15239;DHT22;7722;53.274;9.500;2022-10-16T11:45:49;18.60;99.90
15239;DHT22;7722;53.274;9.500;2022-10-16T11:48:24;19.40;99.90
15239;DHT22;7722;53.274;9.500;2022-10-16T11:50:56;19.90;99.90
15239;DHT22;7722;53.274;9.500;2022-10-16T11:53:38;20.00;99.90
15239;DHT22;7722;53.274;9.500;2022-10-16T11:56:08;20.10;99.90
15239;DHT22;7722;53.274;9.500;2022-10-16T11:58:41;20.40;99.90
15239;DHT22;7722;53.274;9.500;2022-10-16T12:01:19;20.60;99.90
15239;DHT22;7722;53.274;9.500;2022-10-16T12:03:51;20.30;99.90
15239;DHT22;7722;53.274;9.500;2022-10-16T12:06:31;20.60;99.90
15239;DHT22;7722;53.274;9.500;2022-10-16T12:09:01;20.30;99.90
15239;DHT22;7722;53.274;9.500;2022-10-16T12:11:35;20.30;99.90
15239;DHT22;7722;53.274;9.500;2022-10-16T12:14:07;20.20;99.90
15239;DHT22;7722;53.274;9.500;2022-10-16T12:16:52;20.50;99.90
15239;DHT22;7722;53.274;9.500;2022-10-16T12:19:21;20.30;99.90
15239;DHT22;7722;53.274;9.500;2022-10-16T12:21:51;20.20;99.90
15239;DHT22;7722;53.274;9.500;2022-10-16T12:24:34;20.40;99.90
15239;DHT22;7722;53.274;9.500;2022-10-16T12:27:03;20.60;99.90
15239;DHT22;7722;53.274;9.500;2022-10-16T12:29:34;20.60;99.90
15239;DHT22;7722;53.274;9.500;2022-10-16T12:32:04;20.70;99.40
15239;DHT22;7722;53.274;9.500;2022-10-16T12:34:38;20.40;99.80
15239;DHT22;7722;53.274;9.500;2022-10-16T12:37:19;19.40;99.90
15239;DHT22;7722;53.274;9.500;2022-10-16T12:39:47;19.40;99.90
15239;DHT22;7722;53.274;9.500;2022-10-16T12:42:30;19.20;99.90
15239;DHT22;7722;53.274;9.500;2022-10-16T12:44:59;18.70;99.90
15239;DHT22;7722;53.274;9.500;2022-10-16T12:47:37;18.40;99.90
15239;DHT22;7722;53.274;9.500;2022-10-16T12:50:28;18.30;99.90
15239;DHT22;7722;53.274;9.500;2022-10-16T12:52:57;18.10;99.90
15239;DHT22;7722;53.274;9.500;2022-10-16T12:55:24;18.00;99.90
15239;DHT22;7722;53.274;9.500;2022-10-16T13:01:07;17.90;99.90
15239;DHT22;7722;53.274;9.500;2022-10-16T13:06:33;18.60;99.90
15239;DHT22;7722;53.274;9.500;2022-10-16T13:09:19;19.40;99.80
15239;DHT22;7722;53.274;9.500;2022-10-16T13:12:00;19.60;99.90
15239;DHT22;7722;53.274;9.500;2022-10-16T13:14:53;19.70;99.90
15239;DHT22;7722;53.274;9.500;2022-10-16T13:17:31;19.90;99.10
15239;DHT22;7722;53.274;9.500;2022-10-16T13:20:06;19.60;99.90
15239;DHT22;7722;53.274;9.500;2022-10-16T13:22:43;19.40;99.50
15239;DHT22;7722;53.274;9.500;2022-10-16T13:25:22;19.40;99.50
15239;DHT22;7722;53.274;9.500;2022-10-16T13:27:54;19.10;99.60
15239;DHT22;7722;53.274;9.500;2022-10-16T13:30:24;19.40;99.70
15239;DHT22;7722;53.274;9.500;2022-10-16T13:32:58;20.00;99.20
15239;DHT22;7722;53.274;9.500;2022-10-16T13:35:27;20.20;98.50
15239;DHT22;7722;53.274;9.500;2022-10-16T13:38:04;20.40;98.10
15239;DHT22;7722;53.274;9.500;2022-10-16T13:40:33;20.30;97.20
15239;DHT22;7722;53.274;9.500;2022-10-16T13:43:00;20.80;96.00
15239;DHT22;7722;53.274;9.500;2022-10-16T13:45:28;20.80;96.00
15239;DHT22;7722;53.274;9.500;2022-10-16T13:48:02;20.50;97.00
15239;DHT22;7722;53.274;9.500;2022-10-16T13:50:29;20.80;96.90
15239;DHT22;7722;53.274;9.500;2022-10-16T13:53:04;20.40;97.10
15239;DHT22;7722;53.274;9.500;2022-10-16T13:55:33;19.90;97.30
15239;DHT22;7722;53.274;9.500;2022-10-16T13:58:08;20.10;96.90
15239;DHT22;7722;53.274;9.500;2022-10-16T14:00:35;19.80;96.90
15239;DHT22;7722;53.274;9.500;2022-10-16T14:03:04;20.10;95.10
15239;DHT22;7722;53.274;9.500;2022-10-16T14:05:32;20.20;95.80
15239;DHT22;7722;53.274;9.500;2022-10-16T14:08:00;19.60;96.10
15239;DHT22;7722;53.274;9.500;2022-10-16T14:10:29;19.10;96.20
15239;DHT22;7722;53.274;9.500;2022-10-16T14:13:03;19.30;96.30
15239;DHT22;7722;53.274;9.500;2022-10-16T14:15:32;19.10;95.90
15239;DHT22;7722;53.274;9.500;2022-10-16T14:18:01;18.70;96.30
15239;DHT22;7722;53.274;9.500;2022-10-16T14:20:31;18.70;96.80
15239;DHT22;7722;53.274;9.500;2022-10-16T14:23:01;18.40;97.40
15239;DHT22;7722;53.274;9.500;2022-10-16T14:25:30;18.60;97.70
15239;DHT22;7722;53.274;9.500;2022-10-16T14:28:03;18.90;97.30
15239;DHT22;7722;53.274;9.500;2022-10-16T14:30:32;18.70;98.00
15239;DHT22;7722;53.274;9.500;2022-10-16T14:33:01;18.60;97.80
15239;DHT22;7722;53.274;9.500;2022-10-16T14:35:31;18.50;98.30
15239;DHT22;7722;53.274;9.500;2022-10-16T14:37:59;18.40;97.70
15239;DHT22;7722;53.274;9.500;2022-10-16T14:40:29;18.20;98.10
15239;DHT22;7722;53.274;9.500;2022-10-16T14:42:56;18.10;97.90
15239;DHT22;7722;53.274;9.500;2022-10-16T14:45:28;18.00;98.20
15239;DHT22;7722;53.274;9.500;2022-10-16T14:47:57;18.00;98.40
15239;DHT22;7722;53.274;9.500;2022-10-16T14:50:25;17.80;98.60
15239;DHT22;7722;53.274;9.500;2022-10-16T14:52:52;17.90;98.50
15239;DHT22;7722;53.274;9.500;2022-10-16T14:55:19;17.70;98.60
15239;DHT22;7722;53.274;9.500;2022-10-16T14:57:47;17.70;98.60
15239;DHT22;7722;53.274;9.500;2022-10-16T15:00:17;17.60;99.00
15239;DHT22;7722;53.274;9.500;2022-10-16T15:02:47;17.50;99.30
15239;DHT22;7722;53.274;9.500;2022-10-16T15:05:18;17.30;99.90
15239;DHT22;7722;53.274;9.500;2022-10-16T15:07:45;17.20;99.90
15239;DHT22;7722;53.274;9.500;2022-10-16T15:10:13;17.10;99.90
15239;DHT22;7722;53.274;9.500;2022-10-16T15:12:40;17.10;99.90
15239;DHT22;7722;53.274;9.500;2022-10-16T15:15:24;17.00;99.90
15239;DHT22;7722;53.274;9.500;2022-10-16T15:17:55;16.90;99.90
15239;DHT22;7722;53.274;9.500;2022-10-16T15:20:23;16.80;99.90
15239;DHT22;7722;53.274;9.500;2022-10-16T15:22:50;16.80;99.90
15239;DHT22;7722;53.274;9.500;2022-10-16T15:25:31;16.70;99.90
15239;DHT22;7722;53.274;9.500;2022-10-16T15:27:58;16.50;99.90
15239;DHT22;7722;53.274;9.500;2022-10-16T15:30:26;16.50;99.90
15239;DHT22;7722;53.274;9.500;2022-10-16T15:32:54;16.40;99.90
15239;DHT22;7722;53.274;9.500;2022-10-16T15:35:21;16.30;99.90
15239;DHT22;7722;53.274;9.500;2022-10-16T15:37:48;16.20;99.90
15239;DHT22;7722;53.274;9.500;2022-10-16T15:40:17;16.10;99.90
15239;DHT22;7722;53.274;9.500;2022-10-16T15:42:44;16.10;99.90
15239;DHT22;7722;53.274;9.500;2022-10-16T15:45:12;15.90;99.90
15239;DHT22;7722;53.274;9.500;2022-10-16T15:47:40;15.70;99.90
15239;DHT22;7722;53.274;9.500;2022-10-16T15:50:11;15.60;99.90
15239;DHT22;7722;53.274;9.500;2022-10-16T15:52:38;15.50;99.90
15239;DHT22;7722;53.274;9.500;2022-10-16T15:55:06;15.40;99.90
15239;DHT22;7722;53.274;9.500;2022-10-16T15:57:34;15.40;99.90
15239;DHT22;7722;53.274;9.500;2022-10-16T16:00:05;15.40;99.90
15239;DHT22;7722;53.274;9.500;2022-10-16T16:02:32;15.30;99.90
15239;DHT22;7722;53.274;9.500;2022-10-16T16:04:59;15.10;99.90
15239;DHT22;7722;53.274;9.500;2022-10-16T16:07:28;15.00;99.90
15239;DHT22;7722;53.274;9.500;2022-10-16T16:09:55;14.90;99.90
15239;DHT22;7722;53.274;9.500;2022-10-16T16:12:22;14.80;99.90
15239;DHT22;7722;53.274;9.500;2022-10-16T16:14:49;14.90;99.90
15239;DHT22;7722;53.274;9.500;2022-10-16T16:17:16;14.80;99.90
15239;DHT22;7722;53.274;9.500;2022-10-16T16:19:45;14.60;99.90
15239;DHT22;7722;53.274;9.500;2022-10-16T16:22:12;14.50;99.90
15239;DHT22;7722;53.274;9.500;2022-10-16T16:24:40;14.30;99.90
15239;DHT22;7722;53.274;9.500;2022-10-16T16:27:07;14.10;99.90
15239;DHT22;7722;53.274;9.500;2022-10-16T16:29:34;13.90;99.90